Monte Azul, Brazil
Current Conditions -  °F | °C
As of 6:00 AM on Sunday 23 Nov 2014 (Local Time) from SBMK Reporting Station
Clear Clear  
Wind Chill: 72°   Ceiling: Unl
Heat Index: 72°   Visibility: 6mi
Dew Point: 63°   Wind: 5mph
Humidity: 73%   Direction: 50°NE
Pressure: 29.97"   Gusts: NA
Location:  15.16°S, 42.87°W
Report Text: SBMK 230800Z 05004KT CAVOK 22/17 Q1015
Loading
Personal Weather Stations






























Interactive Weather Map New forecast layout! Learn more

10-Day Weather Forecast

Advertisements
Track Severe Weather on mobile